Omaha — WDC9423 — position and weather

sailwx.info

Track history (hours):
 
Tides and Currents Weather Stations Pressure Air Temp Water Temp Dewpoint Dewpoint Depression Visibility Wind Speed Wind Dir Waves Ship Positions

Omaha

Owner: Turn services, Inc, New Orleans, LA. More information available from US FCC via Universal Licensing System and Coast Guard Vessel Documentation Center.

Last reported at 2015-Sep-02 06:33 UTC. Time now 2015-Sep-02 08:34 UTC.
Position N 29°55' W 089°56'.

Length 13 m; draft 3.5 m.

Type: Pilot. MMSI: 367102030.

Date/timePositionNaut miles runAvg speedWind from/ knotsBaromVisibWave heightAir tempDewpointWater temp
2015-Sep-02 06:33N 29°55' W 089°56'3 2.6
2015-Sep-02 05:33N 29°56' W 089°59'0 0.1
2015-Sep-02 03:29N 29°56' W 089°59'2 1.4
2015-Sep-02 02:16N 29°55' W 089°57'0 0.1
2015-Sep-02 00:25N 29°55' W 089°57'1 0.0
2015-Aug-31 22:16N 29°55' W 089°56'0 0.3
2015-Aug-31 21:24N 29°55' W 089°56'0 0.6
2015-Aug-31 20:33N 29°55' W 089°55'0 0.0
2015-Aug-31 16:07N 29°55' W 089°55'3 4.5
2015-Aug-31 15:29N 29°56' W 089°59'3 0.5
2015-Aug-31 10:18N 29°55' W 089°56'3 2.6
2015-Aug-31 09:11N 29°56' W 089°59'3 0.1
2015-Aug-29 22:21N 29°55' W 089°56'0 0.2
2015-Aug-29 21:29N 29°55' W 089°56'0 0.2
2015-Aug-29 20:15N 29°55' W 089°56'0 0.0
2015-Aug-29 18:18N 29°55' W 089°56'0 0.1
2015-Aug-29 15:24N 29°55' W 089°56'1 0.4
2015-Aug-29 13:25N 29°55' W 089°57'1 1.3
2015-Aug-29 12:20N 29°55' W 089°56'0 0.1
2015-Aug-29 11:32N 29°55' W 089°56'0 0.2
2015-Aug-29 09:23N 29°55' W 089°56'0 0.2
2015-Aug-29 08:33N 29°55' W 089°56'1 0.1
2015-Aug-29 04:29N 29°55' W 089°56'4 4.3
2015-Aug-29 03:31N 29°57' W 090°00'4 2.2
2015-Aug-29 01:32N 29°55' W 089°55'1 0.1
2015-Aug-28 18:11N 29°55' W 089°56'0 0.2
2015-Aug-28 16:10N 29°55' W 089°56'1 0.2
2015-Aug-28 13:17N 29°55' W 089°57'1 0.2
2015-Aug-28 10:08N 29°55' W 089°57'3 4.3
2015-Aug-28 09:32N 29°57' W 089°60'1 0.4
2015-Aug-28 06:29N 29°56' W 089°59'1 0.2
2015-Aug-28 03:31N 29°55' W 089°58'1 0.1
2015-Aug-27 16:28N 29°56' W 089°59'3 1.1
2015-Aug-27 13:30N 29°55' W 089°56'1 0.2
2015-Aug-27 10:31N 29°55' W 089°56'0 0.1
2015-Aug-27 09:33N 29°55' W 089°56'2 0.9
2015-Aug-27 07:26N 29°56' W 089°59'2 1.8
2015-Aug-27 06:33N 29°57' W 090°00'4 0.1
2015-Aug-25 23:31N 29°55' W 089°56'0 0.1
2015-Aug-25 19:20N 29°55' W 089°56'1 0.3
2015-Aug-25 16:28N 29°55' W 089°57'3 0.2
2015-Aug-25 03:26N 29°57' W 089°60'1 0.6
2015-Aug-25 01:31N 29°56' W 089°59'2 1.6
2015-Aug-25 00:09N 29°55' W 089°56'0 0.0
2015-Aug-24 07:13N 29°55' W 089°57'0 0.5
2015-Aug-24 06:32N 29°55' W 089°56'0 0.3
2015-Aug-24 05:30N 29°55' W 089°57'0 0.1
2015-Aug-24 04:13N 29°55' W 089°57'0 0.2
2015-Aug-24 03:19N 29°55' W 089°57'1 0.3
2015-Aug-23 23:29N 29°55' W 089°56'0 0.1
2015-Aug-23 22:30N 29°55' W 089°56'0 0.0
2015-Aug-23 19:32N 29°55' W 089°56'0 0.1
2015-Aug-23 17:32N 29°55' W 089°56'  
Track history (hours):
 
Tides and Currents Weather Stations Pressure Air Temp Water Temp Dewpoint Dewpoint Depression Visibility Wind Speed Wind Dir Waves Ship Positions

Omaha

Owner: Turn services, Inc, New Orleans, LA. More information available from US FCC via Universal Licensing System and Coast Guard Vessel Documentation Center.

Last reported at 2015-Sep-02 06:33 UTC. Time now 2015-Sep-02 08:34 UTC.
Position N 29°55' W 089°56'.

Length 13 m; draft 3.5 m.

Type: Pilot. MMSI: 367102030.

Date/timePositionNaut miles runAvg speedWind from/ knotsBaromVisibWave heightAir tempDewpointWater temp
2015-Sep-02 06:33N 29°55' W 089°56'3 2.6
2015-Sep-02 05:33N 29°56' W 089°59'0 0.1
2015-Sep-02 03:29N 29°56' W 089°59'2 1.4
2015-Sep-02 02:16N 29°55' W 089°57'0 0.1
2015-Sep-02 00:25N 29°55' W 089°57'1 0.0
2015-Aug-31 22:16N 29°55' W 089°56'0 0.3
2015-Aug-31 21:24N 29°55' W 089°56'0 0.6
2015-Aug-31 20:33N 29°55' W 089°55'0 0.0
2015-Aug-31 16:07N 29°55' W 089°55'3 4.5
2015-Aug-31 15:29N 29°56' W 089°59'3 0.5
2015-Aug-31 10:18N 29°55' W 089°56'3 2.6
2015-Aug-31 09:11N 29°56' W 089°59'3 0.1
2015-Aug-29 22:21N 29°55' W 089°56'0 0.2
2015-Aug-29 21:29N 29°55' W 089°56'0 0.2
2015-Aug-29 20:15N 29°55' W 089°56'0 0.0
2015-Aug-29 18:18N 29°55' W 089°56'0 0.1
2015-Aug-29 15:24N 29°55' W 089°56'1 0.4
2015-Aug-29 13:25N 29°55' W 089°57'1 1.3
2015-Aug-29 12:20N 29°55' W 089°56'0 0.1
2015-Aug-29 11:32N 29°55' W 089°56'0 0.2
2015-Aug-29 09:23N 29°55' W 089°56'0 0.2
2015-Aug-29 08:33N 29°55' W 089°56'1 0.1
2015-Aug-29 04:29N 29°55' W 089°56'4 4.3
2015-Aug-29 03:31N 29°57' W 090°00'4 2.2
2015-Aug-29 01:32N 29°55' W 089°55'1 0.1
2015-Aug-28 18:11N 29°55' W 089°56'0 0.2
2015-Aug-28 16:10N 29°55' W 089°56'1 0.2
2015-Aug-28 13:17N 29°55' W 089°57'1 0.2
2015-Aug-28 10:08N 29°55' W 089°57'3 4.3
2015-Aug-28 09:32N 29°57' W 089°60'1 0.4
2015-Aug-28 06:29N 29°56' W 089°59'1 0.2
2015-Aug-28 03:31N 29°55' W 089°58'1 0.1
2015-Aug-27 16:28N 29°56' W 089°59'3 1.1
2015-Aug-27 13:30N 29°55' W 089°56'1 0.2
2015-Aug-27 10:31N 29°55' W 089°56'0 0.1
2015-Aug-27 09:33N 29°55' W 089°56'2 0.9
2015-Aug-27 07:26N 29°56' W 089°59'2 1.8
2015-Aug-27 06:33N 29°57' W 090°00'4 0.1
2015-Aug-25 23:31N 29°55' W 089°56'0 0.1
2015-Aug-25 19:20N 29°55' W 089°56'1 0.3
2015-Aug-25 16:28N 29°55' W 089°57'3 0.2
2015-Aug-25 03:26N 29°57' W 089°60'1 0.6
2015-Aug-25 01:31N 29°56' W 089°59'2 1.6
2015-Aug-25 00:09N 29°55' W 089°56'0 0.0
2015-Aug-24 07:13N 29°55' W 089°57'0 0.5
2015-Aug-24 06:32N 29°55' W 089°56'0 0.3
2015-Aug-24 05:30N 29°55' W 089°57'0 0.1
2015-Aug-24 04:13N 29°55' W 089°57'0 0.2
2015-Aug-24 03:19N 29°55' W 089°57'1 0.3
2015-Aug-23 23:29N 29°55' W 089°56'0 0.1
2015-Aug-23 22:30N 29°55' W 089°56'0 0.0
2015-Aug-23 19:32N 29°55' W 089°56'0 0.1
2015-Aug-23 17:32N 29°55' W 089°56'  

Dump ship's entire track history